Statesville West, North Carolina
Current Conditions -  °F | °C
As of 1:15 AM on Sunday 26 Oct 2014 (Local Time) from KSVH Reporting Station
Clear Clear  
Wind Chill: 53°   Ceiling: Unl
Heat Index: 53°   Visibility: 10mi
Dew Point: 48°   Wind: 5mph
Humidity: 83%   Direction: 260°W
Pressure: 29.91"   Gusts: NA
Location:  35.8306°N, 80.9003°W
Report Text: KSVH 260515Z AUTO 26004KT 10SM CLR 12/09 A2991 RMK AO2 T01180090
Loading
Personal Weather Stations






























Interactive Weather Map
Tropical Storm Tracking
New forecast layout! Learn more

10-Day Weather Forecast

Advertisements
Track Severe Weather on mobile